Tiempo atmosférico en la estación meteorológica de Navalvillar De Ibor, Cáceres (923 m.)



Fecha
DESCASC
Temp. máxima en grados centígrados (hora)
DESCASC
Temp. mínima en grados centígrados (hora)
DESCASC
Temp. media en grados centígrados
DESCASC
Racha de viento máxima en m/sg (hora)
DESCASC
Velocidad máxima media en intervalos de 10 minutos(hora)
DESCASC
Precipitaciones diarias en mm
DESCASC
Precipitaciones de 00:00 a 06:00 en mm
DESCASC
Precipitaciones de 06:00 a 12:00 en mm
DESCASC
Precipitaciones de 12:00 a 18:00 en mm
DESCASC
Precipitaciones de 18:00 a 24:00 en mm
DESCASC
02-04-2020 14.4 (17:00) 4.7 (06:40) 9.5 6.94 (02:20) 4.44 (02:20) 0 0 0 0 0
01-04-2020 11.7 (17:40) 3.9 (06:50) 7.8 7.78 (20:40) 4.44 (20:50) 0 0 0 0 0
31-03-2020 8.6 (19:00) 0.3 (00:00) 4.5 8.33 (00:50) 3.89 (01:50) 14.4 1.2 6 5 2.2
30-03-2020 12.1 (11:40) 0.9 (00:00) 6.5 7.5 (20:30) 3.89 (21:20) 11.2 0 0 6.4 4.8
29-03-2020 15.1 (15:30) 5 (00:00) 10.1 7.22 (17:40) 4.72 (01:00) 0 0 0 0 0
28-03-2020 13.1 (14:30) 2.4 (00:00) 7.8 10 (04:50) 3.89 (14:50) 0 0 0 0 0
27-03-2020 9.1 (16:10) 3.1 (00:00) 6.1 10 (15:20) 3.89 (14:20) 0 0 0 0 0
26-03-2020 15.4 (15:00) 4.6 (00:00) 10 8.89 (15:20) 3.61 (15:20) 0 0 0 0 0
25-03-2020 14.9 (15:20) 3.6 (00:00) 9.2 7.22 (20:50) 3.61 (12:30) 16.2 0 0 0 16.2
24-03-2020 11 (16:20) 6.6 (00:00) 8.8 11.11 (11:00) 3.89 (12:10) 0 0 0 0 0
23-03-2020 11.1 (17:00) 6 (00:00) 8.6 8.89 (19:30) 3.33 (15:40) 1.2 0 0.4 0.2 0.6
22-03-2020 11.7 (15:50) 4.4 (06:20) 8 7.78 (02:20) 3.89 (02:20) 0.8 0.6 0 0 0.2
21-03-2020 10.7 (00:00) 4.4 (00:00) 7.5 8.89 (05:40) 3.61 (08:40) 25.8 14.8 9.6 0 1.4
20-03-2020 11.2 (12:10) 8.5 (00:00) 9.8 6.39 (12:00) 2.5 (11:40) 0 0 0 0 0
19-03-2020 15.4 (15:10) 6 (00:00) 10.7 6.67 (01:30) 2.78 (14:20) 0 0 0 0 0
18-03-2020 14 (17:00) 7.5 (00:00) 10.8 9.72 (01:40) 3.89 (06:50) 0 0 0 0 0
17-03-2020 13.8 (16:30) 1.7 (00:00) 7.8 10.28 (08:20) 3.89 (08:00) 0 0 0 0 0
16-03-2020 7.3 (14:20) 0.6 (00:00) 4 12.22 (02:50) 4.44 (02:50) 3.6 0 0 1 2.6
15-03-2020 18.1 (14:40) 5.3 (00:00) 11.7 11.39 (16:20) 4.72 (18:30) 0 0 0 0 0
14-03-2020 20.1 (16:10) 9.8 (00:00) 15 6.11 (13:50) 2.78 (12:30) 0 0 0 0 0
13-03-2020 19 (15:20) 9.1 (06:20) 14.1 7.5 (15:10) 3.61 (15:40) 0 0 0 0 0
12-03-2020 23.9 (14:30) 12.5 (00:00) 18.2 6.11 (14:00) 2.78 (14:50) 0 0 0 0 0
11-03-2020 23.4 (13:40) 11.7 (00:00) 17.5 4.72 (23:40) 2.78 (23:50) 0 0 0 0 0
10-03-2020 21.7 (17:20) 7.8 (00:00) 14.8 5.28 (14:40) 2.22 (13:20) 0 0 0 0 0
09-03-2020 16.5 (16:10) 4.2 (00:00) 10.3 6.11 (14:40) 3.06 (02:20) 0 0 0 0 0
08-03-2020 15.4 (14:10) 3.8 (00:00) 9.6 6.39 (20:10) 3.33 (14:40) 0 0 0 0 0
07-03-2020 14.1 (15:10) 2 (00:00) 8.1 6.39 (11:20) 2.78 (13:30) 0 0 0 0 0
06-03-2020 10.5 (17:00) 3.3 (00:00) 6.9 13.61 (15:40) 6.67 (15:20) 0 0 0 0 0
05-03-2020 11.6 (15:50) 4.9 (00:00) 8.3 14.72 (08:40) 6.11 (08:40) 7 0 7 0 0

Gráficas

Temp. máximas Temp. mínimas Temp. medias Precipitaciones Rachas de viento máximas Velocidades máximas media en intervalos de 10 minutos

Datos horarios

Fecha y hora oficial Temperatura (ºC) Velocidad del viento (km/h) Dirección del viento Racha (km/h) Dirección de racha Precipitación (mm) Presión (hPa) Tendencia (hPa) Humedad (%)
2020-04-03 23:00:00 9.1 4 Sur 10 Sur 0 -- -- 70
2020-04-03 22:00:00 10.5 6 Sur 16 Sur 0 -- -- 62
2020-04-03 21:00:00 12.3 10 Sur 16 Sur 0 -- -- 55
2020-04-03 20:00:00 14.5 5 Noroeste 11 Este 0 -- -- 52
2020-04-03 19:00:00 15.6 7 Norte 14 Norte 0 -- -- 48
2020-04-03 18:00:00 14.4 2 Sudeste 15 Sudeste 0 -- -- 53
2020-04-03 17:00:00 14.7 4 Este 12 Sur 0 -- -- 51
2020-04-03 16:00:00 14 6 Norte 13 Norte 0 -- -- 56
2020-04-03 15:00:00 14.2 8 Norte 30 Oeste 0 -- -- 54
2020-04-03 14:00:00 13.9 5 Nordeste 11 Este 0 -- -- 54
2020-04-03 13:00:00 12.3 5 Sur 9 Sur 0 -- -- 56
2020-04-03 12:00:00 13.2 5 Nordeste 15 Norte 0 -- -- 54
2020-04-03 11:00:00 12.1 6 Norte 14 Norte 0 -- -- 57
2020-04-03 10:00:00 10.3 5 Nordeste 10 Nordeste 0 -- -- 63
2020-04-03 09:00:00 6.3 4 Sudeste 9 Sudeste 0 -- -- 82
2020-04-03 08:00:00 5 3 Sur 8 Sudeste 0 -- -- 86
2020-04-03 07:00:00 5.4 4 Sudeste 8 Sudeste 0 -- -- 84
2020-04-03 06:00:00 5.8 4 Sur 9 Sur 0 -- -- 84
2020-04-03 05:00:00 6.3 3 Sudeste 7 Este 0 -- -- 83
2020-04-03 04:00:00 7.2 3 Sudeste 9 Sudeste 0 -- -- 79
2020-04-03 03:00:00 8.1 5 Sur 13 Sudeste 0 -- -- 74
2020-04-03 02:00:00 8.6 5 Sudeste 13 Sudeste 0 -- -- 71
2020-04-03 01:00:00 8.8 6 Sur 13 Sudeste 0 -- -- 71
2020-04-03 00:00:00 8.9 5 Sur 9 Este 0 -- -- 71
2020-04-02 23:00:00 9.2 4 Sudeste 10 Sudeste 0 -- -- 69
2020-04-02 22:00:00 10.2 5 Sudeste 11 Norte 0 -- -- 65
2020-04-02 21:00:00 11.1 2 Oeste 15 Oeste 0 -- -- 61
2020-04-02 20:00:00 12.1 6 Norte 20 Noroeste 0 -- -- 55
2020-04-02 19:00:00 14.1 7 Noroeste 16 Noroeste 0 -- -- 49
2020-04-02 18:00:00 13.9 5 Noroeste 18 Noroeste 0 -- -- 43
2020-04-02 17:00:00 14.4 11 Noroeste 20 Oeste 0 -- -- 41
2020-04-02 16:00:00 13.4 8 Nordeste 22 Norte 0 -- -- 45
2020-04-02 15:00:00 12.4 6 Este 21 Nordeste 0 -- -- 52
2020-04-02 14:00:00 11.9 8 Nordeste 24 Nordeste 0 -- -- 60
2020-04-02 13:00:00 11.4 13 Norte 22 Nordeste 0 -- -- 64
2020-04-02 12:00:00 9.2 7 Nordeste 20 Norte 0 -- -- 76
2020-04-02 11:00:00 8.9 8 Noroeste 19 Norte 0 -- -- 76
2020-04-02 10:00:00 6.5 5 Noroeste 13 Nordeste 0 -- -- 88
2020-04-02 09:00:00 4.8 2 Sudeste 6 Sudeste 0 -- -- 91
2020-04-02 08:00:00 4.7 0 Calma 6 Oeste 0 -- -- 92
2020-04-02 07:00:00 4.8 2 Sudeste 6 Oeste 0 -- -- 91
2020-04-02 06:00:00 5 2 Sudeste 11 Este 0 -- -- 90
2020-04-02 05:00:00 5.1 6 Sudeste 13 Sudeste 0 -- -- 89
2020-04-02 04:00:00 5.3 3 Norte 17 Norte 0 -- -- 90
2020-04-02 03:00:00 5.1 4 Sur 25 Sudeste 0 -- -- 88
2020-04-02 02:00:00 5.7 9 Sudeste 21 Sudeste 0 -- -- 84
2020-04-02 01:00:00 6.2 9 Sudeste 17 Sudeste 0 -- -- 81
2020-04-02 00:00:00 6.4 3 Sudeste 18 Sur 0 -- -- 74
2020-04-01 23:00:00 6.8 9 Sur 19 Sudeste 0 -- -- 71
2020-04-01 22:00:00 7.3 3 Sudeste 19 Sur 0 -- -- 70
2020-04-01 21:00:00 7.1 13 Sur 28 Sudeste 0 -- -- 71
2020-04-01 20:00:00 8.8 8 Oeste 23 Sudoeste 0 -- -- 66
2020-04-01 19:00:00 11.1 5 Oeste 21 Oeste 0 -- -- 56
2020-04-01 18:00:00 10.6 9 Sudoeste 24 Oeste 0 -- -- 53
2020-04-01 17:00:00 9.4 4 Noroeste 20 Oeste 0 -- -- 63
2020-04-01 16:00:00 9.9 6 Noroeste 22 Oeste 0 -- -- 62
2020-04-01 15:00:00 9.8 7 Noroeste 18 Sur 0 -- -- 59
2020-04-01 14:00:00 9.4 4 Sudoeste 16 Oeste 0 -- -- 60
2020-04-01 13:00:00 7 9 Oeste 22 Sudoeste 0 -- -- 71
2020-04-01 12:00:00 6.9 8 Sudeste 19 Sudoeste 0 -- -- 77
2020-04-01 11:00:00 5.3 5 Noroeste 13 Sudoeste 0 -- -- 91
2020-04-01 10:00:00 5.6 4 Norte 12 Nordeste 0 -- -- 90
2020-04-01 09:00:00 4.1 2 Oeste 14 Sudeste 0 -- -- 97
2020-04-01 08:00:00 4 5 Sudeste 10 Este 0 -- -- 97
2020-04-01 07:00:00 3.9 0 Calma 6 Este 0 -- -- 100
2020-04-01 06:00:00 4 0 Calma 10 Este 0 -- -- 99
2020-04-01 05:00:00 4.2 3 Sudeste 9 Sudoeste 0 -- -- 97
2020-04-01 04:00:00 4.9 3 Sudeste 14 Sudoeste 0 -- -- 99
2020-04-01 03:00:00 5.4 3 Oeste 11 Oeste 0 -- -- 100
2020-04-01 02:00:00 6.1 5 Sudoeste 12 Sudoeste 0 -- -- 97
2020-04-01 01:00:00 6.5 5 Sudeste 13 Sudeste 0 -- -- 90
2020-04-01 00:00:00 6.7 0 Calma 14 Sudoeste 0 -- -- 94
2020-03-31 23:00:00 7 2 Sudeste 15 Sudeste 2 -- -- 95
2020-03-31 22:00:00 7.2 8 Sudeste 19 Sudeste 0 -- -- 93
2020-03-31 21:00:00 7.5 9 Sudeste 22 Sudeste 0 -- -- 88
2020-03-31 20:00:00 7.9 8 Sudeste 23 Este 0 -- -- 92
2020-03-31 19:00:00 8.6 5 Sudoeste 21 Sudeste 0.2 -- -- 92
2020-03-31 18:00:00 7.6 4 Sudeste 14 Sudeste 2.8 -- -- 98
2020-03-31 17:00:00 7.9 6 Sudeste 14 Sudeste 1.6 -- -- 96
2020-03-31 16:00:00 8.2 2 Norte 19 Oeste 0.2 -- -- 99
2020-03-31 15:00:00 7.6 6 Oeste 16 Oeste 0 -- -- 98
2020-03-31 14:00:00 6.8 5 Noroeste 13 Noroeste 0 -- -- 100
2020-03-31 13:00:00 5.5 3 Noroeste 9 Nordeste 0.4 -- -- 100
2020-03-31 12:00:00 4.3 3 Norte 8 Noroeste 0.6 -- -- 100
2020-03-31 11:00:00 3.8 4 Norte 17 Este 0.2 -- -- 98
2020-03-31 10:00:00 2.7 3 Nordeste 13 Nordeste 0.6 -- -- 99
2020-03-31 09:00:00 2.4 5 Norte 14 Este 1 -- -- 97
2020-03-31 08:00:00 2.6 7 Sudeste 15 Sudeste 1.8 -- -- 99
2020-03-31 07:00:00 1.7 8 Sudeste 21 Sudeste 1.8 -- -- 98
2020-03-31 06:00:00 0.8 8 Este 18 Sudeste 0.4 -- -- 98
2020-03-31 05:00:00 0.4 7 Sudeste 28 Sudeste 0 -- -- 99
2020-03-31 04:00:00 0.3 10 Sudeste 27 Este 0 -- -- 99
2020-03-31 03:00:00 0.4 10 Sudeste 28 Sudeste 0 -- -- 98
2020-03-31 02:00:00 0.4 11 Sudeste 28 Sudeste 0.6 -- -- 98
2020-03-31 01:00:00 0.5 11 Sudeste 30 Este 0.2 -- -- 97
2020-03-31 00:00:00 0.9 10 Sudeste 26 Este 0.6 -- -- 97
2020-03-30 23:00:00 1.4 10 Sudeste 23 Sudeste 0.4 -- -- 96
2020-03-30 22:00:00 1.9 13 Sudeste 27 Sudeste 0.8 -- -- 95
2020-03-30 21:00:00 2.1 9 Sudeste 27 Sudeste 1 -- -- 95
2020-03-30 20:00:00 2.7 11 Sudeste 24 Sudeste 1.2 -- -- 94
2020-03-30 19:00:00 3.5 6 Sudeste 20 Este 0.8 -- -- 97
2020-03-30 18:00:00 4.7 10 Sudeste 25 Sudeste 0 -- -- 93
2020-03-30 17:00:00 6.7 3 Nordeste 14 Oeste 1.8 -- -- 95
2020-03-30 16:00:00 7.7 4 Noroeste 21 Sur 1.2 -- -- 91
2020-03-30 15:00:00 7.5 5 Sudeste 19 Nordeste 3.2 -- -- 88
2020-03-30 14:00:00 8.8 7 Este 18 Nordeste 0.2 -- -- 77
2020-03-30 13:00:00 10.4 8 Norte 15 Nordeste 0 -- -- 69
2020-03-30 12:00:00 11.4 6 Noroeste 20 Oeste 0 -- -- 68
2020-03-30 11:00:00 11.3 8 Noroeste 12 Noroeste 0 -- -- 65
2020-03-30 10:00:00 9.4 4 Noroeste 6 Noroeste 0 -- -- 70
2020-03-30 09:00:00 6.6 4 Sur 9 Sudoeste 0 -- -- 82
2020-03-30 08:00:00 7.1 4 Sudoeste 13 Sudoeste 0 -- -- 78
2020-03-30 07:00:00 7.5 7 Sudoeste 13 Sudoeste 0 -- -- 77
2020-03-30 06:00:00 6.9 6 Sudoeste 14 Sudoeste 0 -- -- 80
2020-03-30 05:00:00 7.7 6 Sudoeste 13 Sur 0 -- -- 78
2020-03-30 04:00:00 8.6 7 Sudoeste 14 Sur 0 -- -- 75
2020-03-30 03:00:00 9.4 7 Sudoeste 14 Sudoeste 0 -- -- 71
2020-03-30 02:00:00 9.2 6 Sudoeste 14 Sur 0 -- -- 72
2020-03-30 01:00:00 9.8 5 Sudoeste 12 Sudoeste 0 -- -- 70
2020-03-30 00:00:00 9.5 5 Sudoeste 11 Sur 0 -- -- 71
2020-03-29 23:00:00 9.9 5 Sudoeste 12 Oeste 0 -- -- 67
2020-03-29 22:00:00 10.6 8 Sudoeste 13 Sudoeste 0 -- -- 62
2020-03-29 21:00:00 10.8 6 Sudoeste 15 Noroeste 0 -- -- 58
2020-03-29 20:00:00 12.6 5 Oeste 18 Noroeste 0 -- -- 54
2020-03-29 19:00:00 13.8 6 Noroeste 15 Noroeste 0 -- -- 54
2020-03-29 18:00:00 14.2 8 Oeste 26 Norte 0 -- -- 51
2020-03-29 17:00:00 14.3 6 Oeste 18 Noroeste 0 -- -- 53
2020-03-29 16:00:00 14.8 9 Noroeste 18 Noroeste 0 -- -- 49
2020-03-29 15:00:00 14 6 Noroeste 12 Noroeste 0 -- -- 48
2020-03-29 14:00:00 13.5 7 Norte 13 Oeste 0 -- -- 49
2020-03-29 13:00:00 13.8 8 Noroeste 14 Noroeste 0 -- -- 49
2020-03-29 12:00:00 11.6 4 Sudoeste 12 Oeste 0 -- -- 52
2020-03-29 11:00:00 11.8 6 Noroeste 10 Noroeste 0 -- -- 54
2020-03-29 10:00:00 8.8 0 Calma 6 Sudeste 0 -- -- 69
2020-03-29 09:00:00 5.6 4 Sur 6 Sudeste 0 -- -- 77
2020-03-29 08:00:00 5.1 5 Sur 7 Sur 0 -- -- 77
2020-03-29 07:00:00 5.2 6 Sur 9 Sudeste 0 -- -- 77
2020-03-29 06:00:00 6 4 Sudeste 10 Sur 0 -- -- 73
2020-03-29 05:00:00 6.5 6 Sur 18 Sur 0 -- -- 68
2020-03-29 03:00:00 8.8 15 Sur 24 Sudeste 0 -- -- 53
2020-03-29 01:00:00 8.9 17 Sur 25 Sur 0 -- -- 48
2020-03-29 00:00:00 8.2 12 Sur 17 Sur 0 -- -- 57
2020-03-28 23:00:00 7.5 5 Sudeste 13 Sudeste 0 -- -- 64
2020-03-28 22:00:00 8.7 7 Sur 12 Sudeste 0 -- -- 50
2020-03-28 21:00:00 8.9 5 Sur 10 Sur 0 -- -- 48
2020-03-28 20:00:00 9.4 5 Sur 12 Este 0 -- -- 49
2020-03-28 19:00:00 10.7 4 Oeste 18 Norte 0 -- -- 51
2020-03-28 18:00:00 12.2 5 Nordeste 16 Nordeste 0 -- -- 52
2020-03-28 17:00:00 12.7 4 Nordeste 16 Norte 0 -- -- 52
2020-03-28 16:00:00 12.2 6 Norte 19 Norte 0 -- -- 55
2020-03-28 15:00:00 12.9 12 Norte 24 Norte 0 -- -- 54
2020-03-28 14:00:00 12.4 8 Sudeste 23 Este 0 -- -- 49
2020-03-28 13:00:00 11.5 8 Nordeste 23 Nordeste 0 -- -- 55
2020-03-28 12:00:00 10.2 9 Nordeste 28 Nordeste 0 -- -- 61
2020-03-28 11:00:00 8.2 11 Nordeste 25 Nordeste 0 -- -- 69
2020-03-28 10:00:00 7.3 9 Nordeste 27 Nordeste 0 -- -- 70
2020-03-28 09:00:00 6.3 8 Sur 33 Este 0 -- -- 72
2020-03-28 08:00:00 4.3 7 Sur 24 Nordeste 0 -- -- 77
2020-03-28 07:00:00 3.5 5 Sudeste 24 Este 0 -- -- 78
2020-03-28 06:00:00 3.4 7 Este 26 Este 0 -- -- 79
2020-03-28 05:00:00 4.1 8 Nordeste 36 Este 0 -- -- 74
2020-03-28 04:00:00 2.4 7 Noroeste 19 Nordeste 0 -- -- 86
2020-03-28 03:00:00 3.3 4 Noroeste 19 Este 0 -- -- 81
2020-03-28 02:00:00 2.8 2 Oeste 10 Este 0 -- -- 82
2020-03-28 01:00:00 3.2 0 Calma 13 Este 0 -- -- 80
2020-03-28 00:00:00 3.9 5 Sudeste 17 Sudeste 0 -- -- 80
2020-03-27 23:00:00 4.3 5 Sudeste 24 Este 0 -- -- 78
2020-03-27 22:00:00 4.8 8 Sudeste 21 Este 0 -- -- 78
2020-03-27 21:00:00 5.2 5 Este 16 Sur 0 -- -- 76
2020-03-27 20:00:00 6.1 7 Este 18 Este 0 -- -- 70
2020-03-27 19:00:00 6.6 9 Este 30 Este 0 -- -- 66
2020-03-27 18:00:00 6.8 10 Nordeste 32 Este 0 -- -- 65
2020-03-27 17:00:00 8.8 13 Nordeste 30 Nordeste 0 -- -- 60
2020-03-27 16:00:00 8.3 12 Norte 36 Nordeste 0 -- -- 65
2020-03-27 15:00:00 7.7 13 Nordeste 31 Norte 0 -- -- 67
2020-03-27 14:00:00 7.7 13 Nordeste 28 Nordeste 0 -- -- 69
2020-03-27 13:00:00 7.4 12 Nordeste 31 Nordeste 0 -- -- 68
2020-03-27 12:00:00 6.1 7 Este 27 Nordeste 0 -- -- 75
2020-03-27 11:00:00 6.3 9 Nordeste 27 Este 0 -- -- 72
2020-03-27 10:00:00 6.1 9 Sudeste 27 Sudeste 0 -- -- 70
2020-03-27 09:00:00 4.5 9 Sudeste 24 Este 0 -- -- 74
2020-03-27 08:00:00 3.4 7 Este 23 Sudeste 0 -- -- 75
2020-03-27 07:00:00 3.2 7 Este 25 Nordeste 0 -- -- 73
2020-03-27 06:00:00 3.5 6 Nordeste 15 Sudeste 0 -- -- 71
2020-03-27 05:00:00 4.9 4 Este 12 Sudeste 0 -- -- 79
2020-03-27 04:00:00 5 5 Nordeste 14 Sudeste 0 -- -- 80
2020-03-27 03:00:00 5 3 Sur 8 Sudoeste 0 -- -- 80
2020-03-27 02:00:00 5.6 4 Sur 8 Sur 0 -- -- 79
2020-03-27 01:00:00 6 3 Oeste 9 Sudoeste 0 -- -- 75
2020-03-27 00:00:00 6.5 4 Sudeste 8 Este 0 -- -- 80
2020-03-26 23:00:00 7 3 Sur 11 Oeste 0 -- -- 75
2020-03-26 22:00:00 9.6 6 Sudoeste 12 Sudoeste 0 -- -- 54
2020-03-26 21:00:00 9.9 4 Sudoeste 13 Sudoeste 0 -- -- 53
2020-03-26 20:00:00 11.5 7 Sudoeste 19 Oeste 0 -- -- 47
2020-03-26 19:00:00 13 7 Oeste 24 Oeste 0 -- -- 46
2020-03-26 18:00:00 14.9 11 Oeste 28 Noroeste 0 -- -- 44
2020-03-26 17:00:00 15.2 12 Oeste 29 Oeste 0 -- -- 46
2020-03-26 16:00:00 15.4 11 Oeste 32 Oeste 0 -- -- 43
2020-03-26 15:00:00 15.4 10 Oeste 27 Noroeste 0 -- -- 49
2020-03-26 14:00:00 14.5 11 Oeste 26 Noroeste 0 -- -- 51
2020-03-26 13:00:00 13.6 10 Oeste 19 Oeste 0 -- -- 56
2020-03-26 12:00:00 12.2 9 Noroeste 24 Noroeste 0 -- -- 59
2020-03-26 11:00:00 11.4 9 Noroeste 17 Noroeste 0 -- -- 57
2020-03-26 10:00:00 10.3 4 Noroeste 12 Oeste 0 -- -- 62
2020-03-26 09:00:00 7.7 0 Calma 9 Noroeste 0 -- -- 72
2020-03-26 08:00:00 4.7 3 Sur 7 Sudoeste 0 -- -- 89
2020-03-26 07:00:00 4.8 5 Sur 9 Sudoeste 0 -- -- 90
2020-03-26 06:00:00 5.6 4 Sur 8 Sudoeste 0 -- -- 92
2020-03-26 05:00:00 6.1 5 Sudoeste 8 Sudoeste 0 -- -- 94
2020-03-26 04:00:00 6.9 3 Sudeste 10 Oeste 0 -- -- 94
2020-03-26 03:00:00 8 6 Sudoeste 14 Oeste 0 -- -- 91
2020-03-26 02:00:00 9.4 7 Sudoeste 16 Oeste 0 -- -- 87
2020-03-26 01:00:00 9.5 8 Sudoeste 19 Sudoeste 0 -- -- 87
2020-03-26 00:00:00 9.3 7 Sudoeste 15 Sur 0.2 -- -- 85
2020-03-25 23:00:00 8.8 5 Sudoeste 18 Norte 3 -- -- 90
2020-03-25 22:00:00 8.4 6 Sudoeste 21 Sur 4.6 -- -- 87
2020-03-25 21:00:00 8.5 5 Norte 26 Norte 7.6 -- -- 87
2020-03-25 20:00:00 11.1 6 Este 19 Nordeste 0.8 -- -- 72
2020-03-25 19:00:00 12 6 Oeste 15 Oeste 0 -- -- 69
2020-03-25 18:00:00 12.8 5 Oeste 19 Noroeste 0 -- -- 66
2020-03-25 17:00:00 13.9 8 Oeste 21 Oeste 0 -- -- 63
2020-03-25 16:00:00 14.3 9 Oeste 19 Oeste 0 -- -- 60
2020-03-25 15:00:00 13.7 8 Oeste 25 Noroeste 0 -- -- 62
2020-03-25 14:00:00 14.3 8 Oeste 22 Noroeste 0 -- -- 58
2020-03-25 13:00:00 12.9 8 Oeste 22 Noroeste 0 -- -- 65
2020-03-25 12:00:00 12.4 9 Noroeste 22 Noroeste 0 -- -- 61
2020-03-25 11:00:00 11 6 Noroeste 14 Oeste 0 -- -- 61
2020-03-25 10:00:00 10.5 4 Noroeste 8 Noroeste 0 -- -- 64
2020-03-25 09:00:00 6.7 0 Calma 4 Noroeste 0 -- -- 79
2020-03-25 08:00:00 4.2 4 Sur 10 Oeste 0 -- -- 87
2020-03-25 07:00:00 3.7 3 Sudoeste 9 Oeste 0 -- -- 87
2020-03-25 06:00:00 4.3 3 Sudoeste 9 Sudoeste 0 -- -- 85
2020-03-25 05:00:00 4.2 3 Sudoeste 11 Sudoeste 0 -- -- 87
2020-03-25 04:00:00 6.3 4 Sudoeste 14 Sudeste 0 -- -- 79
2020-03-25 03:00:00 7.7 6 Sudeste 17 Sudeste 0 -- -- 72
2020-03-25 02:00:00 7.9 4 Sur 14 Sudeste 0 -- -- 71
2020-03-25 01:00:00 7.4 4 Sudoeste 13 Sur 0 -- -- 74
2020-03-25 00:00:00 8.1 5 Sudeste 19 Nordeste 0 -- -- 72
2020-03-24 23:00:00 8.2 6 Sur 22 Sudeste 0 -- -- 75
2020-03-24 22:00:00 8.3 9 Sudeste 21 Este 0 -- -- 78
2020-03-24 21:00:00 8.7 6 Sur 18 Este 0 -- -- 76
2020-03-24 20:00:00 9.3 6 Sudeste 18 Este 0 -- -- 75
2020-03-24 19:00:00 10.5 7 Sudeste 23 Sudeste 0 -- -- 70
2020-03-24 18:00:00 10.7 6 Este 19 Nordeste 0 -- -- 72
2020-03-24 17:00:00 10.7 9 Este 23 Sudeste 0 -- -- 72
2020-03-24 16:00:00 10.7 11 Este 32 Nordeste 0 -- -- 74
2020-03-24 15:00:00 9.6 10 Sudeste 34 Este 0 -- -- 78
2020-03-24 14:00:00 9.6 9 Este 32 Este 0 -- -- 80
2020-03-24 13:00:00 8.8 11 Este 36 Este 0 -- -- 83
2020-03-24 12:00:00 8 14 Sudeste 34 Sudeste 0 -- -- 87
2020-03-24 11:00:00 7.4 12 Sudeste 40 Sur 0 -- -- 91
2020-03-24 10:00:00 6.8 13 Este 34 Nordeste 0 -- -- 96
2020-03-24 09:00:00 6.6 11 Este 34 Nordeste 0 -- -- 97
2020-03-24 08:00:00 6.8 11 Nordeste 31 Nordeste 0 -- -- 96
2020-03-24 07:00:00 7 10 Nordeste 38 Este 0 -- -- 94
2020-03-24 06:00:00 7.1 9 Este 31 Sudeste 0 -- -- 94
2020-03-24 05:00:00 7 8 Este 22 Nordeste 0 -- -- 96
2020-03-24 04:00:00 7 9 Nordeste 24 Nordeste 0 -- -- 96
2020-03-24 03:00:00 6.9 4 Noroeste 19 Nordeste 0 -- -- 95
2020-03-24 02:00:00 7.4 4 Norte 24 Nordeste 0 -- -- 91
2020-03-24 01:00:00 8.2 8 Sudeste 26 Sudeste 0 -- -- 88
2020-03-24 00:00:00 8 7 Sudeste 21 Este 0 -- -- 85
2020-03-23 23:00:00 7.2 5 Sur 14 Nordeste 0 -- -- 84
2020-03-23 22:00:00 7.4 5 Sur 15 Este 0 -- -- 82
2020-03-23 21:00:00 7.8 7 Sur 21 Este 0.6 -- -- 83
2020-03-23 20:00:00 8.3 10 Nordeste 32 Este 0 -- -- 85
2020-03-23 19:00:00 9.8 9 Nordeste 26 Este 0 -- -- 80
2020-03-23 18:00:00 10.5 9 Nordeste 25 Este 0 -- -- 73
2020-03-23 17:00:00 11.1 7 Nordeste 23 Nordeste 0 -- -- 75
2020-03-23 16:00:00 10.4 9 Nordeste 26 Nordeste 0 -- -- 75
2020-03-23 15:00:00 9.7 8 Nordeste 20 Nordeste 0 -- -- 81
2020-03-23 14:00:00 8.2 9 Nordeste 31 Nordeste 0.2 -- -- 88
2020-03-23 13:00:00 8.7 8 Este 22 Este 0 -- -- 81
2020-03-23 12:00:00 7.3 8 Nordeste 28 Este 0.2 -- -- 91
2020-03-23 11:00:00 7 7 Nordeste 22 Este 0.2 -- -- 94
2020-03-23 10:00:00 6.8 6 Este 17 Nordeste 0 -- -- 92
2020-03-23 09:00:00 6.3 6 Sudeste 19 Este 0 -- -- 90
2020-03-23 08:00:00 6 6 Este 17 Este 0 -- -- 92
2020-03-23 07:00:00 6.3 5 Nordeste 20 Este 0 -- -- 95
2020-03-23 06:00:00 6.3 5 Este 16 Nordeste 0 -- -- 95
2020-03-23 05:00:00 6.5 4 Nordeste 15 Este 0 -- -- 93
2020-03-23 04:00:00 6.4 6 Este 20 Sudeste 0 -- -- 94
2020-03-23 03:00:00 6.5 5 Este 18 Nordeste 0 -- -- 92
2020-03-23 02:00:00 6.6 7 Este 22 Este 0 -- -- 89
2020-03-23 01:00:00 6.6 8 Este 19 Nordeste 0 -- -- 91
2020-03-23 00:00:00 6.9 4 Nordeste 15 Nordeste 0 -- -- 89
2020-03-22 23:00:00 7.1 4 Nordeste 13 Nordeste 0 -- -- 85
2020-03-22 22:00:00 6.6 0 Calma 3 Oeste 0 -- -- 91
2020-03-22 21:00:00 7.2 3 Norte 10 Este 0 -- -- 88
2020-03-22 20:00:00 7.5 3 Sur 16 Nordeste 0 -- -- 85
2020-03-22 19:00:00 7.8 6 Norte 26 Norte 0.2 -- -- 89
2020-03-22 18:00:00 10.2 5 Norte 12 Nordeste 0 -- -- 63
2020-03-22 17:00:00 11 8 Norte 16 Norte 0 -- -- 62
2020-03-22 16:00:00 11.2 7 Nordeste 17 Nordeste 0 -- -- 62
2020-03-22 15:00:00 10 6 Nordeste 18 Norte 0 -- -- 69
2020-03-22 14:00:00 9.8 6 Nordeste 22 Nordeste 0 -- -- 74
2020-03-22 13:00:00 9.7 7 Nordeste 17 Este 0 -- -- 72
2020-03-22 12:00:00 8.2 7 Sudeste 18 Sudeste 0 -- -- 79
2020-03-22 11:00:00 7 6 Nordeste 19 Nordeste 0 -- -- 90
2020-03-22 10:00:00 7 7 Nordeste 15 Norte 0 -- -- 84
2020-03-22 09:00:00 5.5 5 Norte 13 Este 0 -- -- 94
2020-03-22 08:00:00 4.9 3 Nordeste 16 Sudeste 0 -- -- 92
2020-03-22 07:00:00 4.5 6 Sur 12 Sudeste 0 -- -- 93
2020-03-22 06:00:00 4.5 0 Calma 11 Sudeste 0 -- -- 93
2020-03-22 05:00:00 4.5 0 Calma 10 Sudeste 0 -- -- 95
2020-03-22 04:00:00 4.9 6 Sudeste 15 Sudeste 0 -- -- 91
2020-03-22 03:00:00 5.2 5 Sudeste 28 Sur 0.2 -- -- 88
2020-03-22 02:00:00 5.2 10 Sudeste 22 Sudeste 0.4 -- -- 91
2020-03-22 01:00:00 5.6 2 Sur 14 Este 0 -- -- 92
2020-03-22 00:00:00 5.9 3 Este 17 Sur 0 -- -- 90
2020-03-21 23:00:00 5.8 7 Sudeste 22 Sudeste 0 -- -- 93
2020-03-21 22:00:00 6.1 9 Sudeste 20 Sudeste 0.4 -- -- 92
2020-03-21 21:00:00 6.4 10 Sudeste 20 Sudeste 1 -- -- 91
2020-03-21 20:00:00 7 3 Nordeste 14 Nordeste 0 -- -- 92
2020-03-21 19:00:00 7.4 5 Sudeste 17 Nordeste 0 -- -- 88
2020-03-21 18:00:00 8.1 6 Nordeste 20 Este 0 -- -- 85
2020-03-21 17:00:00 9.8 5 Norte 15 Sudeste 0 -- -- 81
2020-03-21 16:00:00 9.9 8 Este 22 Este 0 -- -- 71
2020-03-21 15:00:00 9.2 7 Nordeste 19 Nordeste 0 -- -- 75
2020-03-21 14:00:00 7.9 4 Sudeste 16 Noroeste 0 -- -- 84
2020-03-21 13:00:00 5.9 5 Norte 12 Este 0 -- -- 92
2020-03-21 12:00:00 5.7 4 Oeste 14 Sudeste 0 -- -- 94
2020-03-21 11:00:00 4.9 6 Este 20 Sudeste 0.4 -- -- 93
2020-03-21 10:00:00 4.6 6 Sudeste 23 Sudeste 1.6 -- -- 92
2020-03-21 09:00:00 4.4 9 Sudeste 26 Sudeste 3.6 -- -- 92
2020-03-21 08:00:00 5.3 7 Oeste 16 Noroeste 2.8 -- -- 96
2020-03-21 07:00:00 6 7 Sudoeste 14 Sudoeste 1.2 -- -- 93
2020-03-21 06:00:00 6.1 7 Noroeste 32 Noroeste 4.4 -- -- 94
2020-03-21 05:00:00 8.2 9 Nordeste 22 Este 3.6 -- -- 98
2020-03-21 04:00:00 7.9 5 Norte 16 Nordeste 4 -- -- 99
2020-03-21 03:00:00 8.7 6 Norte 18 Nordeste 2 -- -- 95
2020-03-21 02:00:00 9.1 6 Norte 18 Nordeste 0.6 -- -- 93
2020-03-21 01:00:00 10 7 Nordeste 24 Nordeste 0.2 -- -- 86
2020-03-21 00:00:00 10.7 6 Este 18 Este 0 -- -- 81
2020-03-20 23:00:00 10.4 3 Nordeste 12 Sur 0 -- -- 85
2020-03-20 22:00:00 10.3 5 Sur 13 Sur 0 -- -- 85
2020-03-20 21:00:00 10 5 Sudeste 11 Nordeste 0 -- -- 87
2020-03-20 20:00:00 10.4 3 Este 18 Este 0 -- -- 85
2020-03-20 19:00:00 10.4 6 Sudeste 14 Nordeste 0 -- -- 85
2020-03-20 18:00:00 10.5 5 Sudeste 18 Nordeste 0 -- -- 85
2020-03-20 17:00:00 10.3 6 Sudeste 19 Nordeste 0 -- -- 87
2020-03-20 16:00:00 10.1 6 Nordeste 21 Nordeste 0 -- -- 88
2020-03-20 15:00:00 9.9 7 Norte 16 Norte 0 -- -- 88
2020-03-20 14:00:00 10.1 4 Norte 10 Este 0 -- -- 86
2020-03-20 13:00:00 10.5 7 Nordeste 18 Este 0 -- -- 82
2020-03-20 12:00:00 10.8 8 Este 23 Este 0 -- -- 84
2020-03-20 11:00:00 9.8 6 Sudeste 18 Este 0 -- -- 89
2020-03-20 10:00:00 9.5 6 Este 16 Nordeste 0 -- -- 90
2020-03-20 09:00:00 9.1 3 Norte 17 Este 0 -- -- 91
2020-03-20 08:00:00 8.6 7 Sudeste 15 Sudeste 0 -- -- 89
2020-03-20 07:00:00 8.7 0 Calma 8 Noroeste 0 -- -- 85
2020-03-20 06:00:00 8.8 8 Noroeste 18 Oeste 0 -- -- 85
2020-03-20 05:00:00 9.2 4 Sur 13 Este 0 -- -- 81
2020-03-20 04:00:00 9.4 3 Oeste 13 Sudeste 0 -- -- 79
2020-03-20 03:00:00 10.1 4 Sur 14 Sudeste 0 -- -- 76
2020-03-20 02:00:00 10 2 Nordeste 10 Sudeste 0 -- -- 75
2020-03-20 01:00:00 11.1 4 Sudeste 13 Este 0 -- -- 72
2020-03-20 00:00:00 10.8 8 Sur 15 Sudeste 0 -- -- 73
2020-03-19 23:00:00 10.8 6 Sudeste 13 Este 0 -- -- 74
2020-03-19 22:00:00 11.1 6 Sudeste 13 Sudeste 0 -- -- 72
2020-03-19 21:00:00 11 5 Sudeste 15 Este 0 -- -- 73
2020-03-19 20:00:00 11.3 5 Sur 14 Este 0 -- -- 72
2020-03-19 19:00:00 12 6 Sudeste 19 Nordeste 0 -- -- 69
2020-03-19 18:00:00 12.8 6 Este 19 Este 0 -- -- 66
2020-03-19 17:00:00 13.6 7 Nordeste 24 Nordeste 0 -- -- 63
2020-03-19 16:00:00 14.7 8 Nordeste 23 Norte 0 -- -- 57
2020-03-19 15:00:00 15.2 8 Nordeste 24 Nordeste 0 -- -- 60
2020-03-19 14:00:00 14.2 9 Nordeste 20 Norte 0 -- -- 61
2020-03-19 13:00:00 13.5 7 Este 22 Nordeste 0 -- -- 58
2020-03-19 12:00:00 13.1 6 Nordeste 20 Sudeste 0 -- -- 62
2020-03-19 11:00:00 12.2 6 Nordeste 17 Este 0 -- -- 61
2020-03-19 10:00:00 10.8 5 Noroeste 10 Noroeste 0 -- -- 63
2020-03-19 09:00:00 8.9 4 Noroeste 9 Sudoeste 0 -- -- 65
2020-03-19 08:00:00 6.5 3 Sur 14 Sudeste 0 -- -- 65
2020-03-19 07:00:00 6 2 Sudeste 5 Sur 0 -- -- 62
2020-03-19 06:00:00 6.8 4 Sudeste 7 Sudeste 0 -- -- 55
2020-03-19 05:00:00 7.7 0 Calma 9 Norte 0 -- -- 53
2020-03-19 04:00:00 10.8 5 Norte 15 Nordeste 0 -- -- 39
2020-03-19 03:00:00 10.7 4 Oeste 22 Sudeste 0 -- -- 38
2020-03-19 02:00:00 11.6 7 Sur 24 Sudeste 0 -- -- 31
2020-03-19 01:00:00 11.6 8 Sur 21 Este 0 -- -- 39
2020-03-19 00:00:00 11.3 8 Sur 24 Este 0 -- -- 42
2020-03-18 23:00:00 10.1 3 Sudoeste 15 Sudeste 0 -- -- 66
2020-03-18 22:00:00 10.6 6 Sudeste 19 Sudeste 0 -- -- 66
2020-03-18 21:00:00 10.9 8 Sur 18 Sudeste 0 -- -- 66
2020-03-18 20:00:00 11.1 4 Sur 23 Este 0 -- -- 77
2020-03-18 19:00:00 11.9 9 Sur 24 Este 0 -- -- 75
2020-03-18 18:00:00 12.9 8 Este 22 Norte 0 -- -- 70
2020-03-18 17:00:00 14 7 Este 17 Nordeste 0 -- -- 67
2020-03-18 16:00:00 13 8 Este 21 Este 0 -- -- 68
2020-03-18 15:00:00 13.8 5 Este 25 Sudeste 0 -- -- 69
2020-03-18 14:00:00 13.7 12 Sudeste 32 Sudeste 0 -- -- 65
2020-03-18 13:00:00 12.5 6 Nordeste 27 Este 0 -- -- 71
2020-03-18 12:00:00 12.8 11 Este 32 Nordeste 0 -- -- 70
2020-03-18 11:00:00 11.8 11 Sudeste 33 Sudeste 0 -- -- 66
2020-03-18 10:00:00 9.8 9 Sudeste 24 Sudeste 0 -- -- 78
2020-03-18 09:00:00 8.1 10 Sudeste 23 Este 0 -- -- 84
2020-03-18 08:00:00 7.7 9 Este 26 Este 0 -- -- 84
2020-03-18 07:00:00 7.7 13 Sudeste 32 Sudeste 0 -- -- 85
2020-03-18 06:00:00 7.7 10 Sudeste 27 Este 0 -- -- 85
2020-03-18 05:00:00 8.1 8 Este 21 Sudeste 0 -- -- 87
2020-03-18 04:00:00 8.4 8 Sur 25 Este 0 -- -- 91
2020-03-18 03:00:00 9.3 9 Sudeste 28 Sudeste 0 -- -- 91
2020-03-18 02:00:00 9.9 9 Nordeste 35 Nordeste 0 -- -- 89
2020-03-18 01:00:00 9.9 11 Nordeste 32 Este 0 -- -- 88
2020-03-18 00:00:00 10 10 Nordeste 35 Nordeste 0 -- -- 88
2020-03-17 23:00:00 10.4 8 Sudeste 23 Este 0 -- -- 85
2020-03-17 22:00:00 11.1 8 Nordeste 25 Este 0 -- -- 77
2020-03-17 21:00:00 11.2 5 Sur 17 Nordeste 0 -- -- 69
2020-03-17 20:00:00 11.6 4 Sudoeste 17 Este 0 -- -- 63
2020-03-17 19:00:00 12.8 7 Este 25 Este 0 -- -- 58
2020-03-17 18:00:00 13.4 6 Sudeste 26 Este 0 -- -- 52
2020-03-17 17:00:00 13.2 8 Sudeste 30 Este 0 -- -- 50
2020-03-17 16:00:00 12.8 7 Este 27 Nordeste 0 -- -- 52
2020-03-17 15:00:00 12.2 10 Este 28 Nordeste 0 -- -- 58
2020-03-17 14:00:00 12 9 Sudeste 24 Nordeste 0 -- -- 56
2020-03-17 13:00:00 9.7 8 Nordeste 27 Nordeste 0 -- -- 68
2020-03-17 12:00:00 9.2 8 Norte 22 Norte 0 -- -- 68
2020-03-17 11:00:00 8.2 7 Este 27 Nordeste 0 -- -- 72
2020-03-17 10:00:00 6.2 7 Sudeste 23 Sudeste 0 -- -- 78
2020-03-17 09:00:00 4 8 Este 37 Este 0 -- -- 85
2020-03-17 08:00:00 3.2 14 Nordeste 37 Este 0 -- -- 80
2020-03-17 07:00:00 2.8 9 Nordeste 33 Este 0 -- -- 83
2020-03-17 06:00:00 1.8 12 Nordeste 36 Este 0 -- -- 95
2020-03-17 05:00:00 2.1 6 Sur 23 Este 0 -- -- 89
2020-03-17 04:00:00 1.7 9 Este 26 Nordeste 0 -- -- 94
2020-03-17 03:00:00 2.5 7 Nordeste 32 Sudeste 0 -- -- 85
2020-03-17 02:00:00 1.9 7 Nordeste 28 Nordeste 0 -- -- 95
2020-03-17 01:00:00 2.5 7 Este 26 Este 0 -- -- 91
2020-03-17 00:00:00 2.4 8 Este 25 Nordeste 0 -- -- 95
2020-03-16 23:00:00 2.3 9 Nordeste 31 Este 0 -- -- 96
2020-03-16 22:00:00 2.2 9 Nordeste 26 Nordeste 0 -- -- 95
2020-03-16 21:00:00 1.9 8 Nordeste 25 Nordeste 0 -- -- 94
2020-03-16 20:00:00 1.3 9 Este 30 Nordeste 2 -- -- 94
2020-03-16 19:00:00 3.4 8 Norte 22 Noroeste 0.6 -- -- 89
2020-03-16 18:00:00 3.8 9 Norte 24 Norte 0.4 -- -- 87
2020-03-16 17:00:00 4.7 13 Norte 26 Norte 0 -- -- 80
2020-03-16 16:00:00 4.5 9 Norte 30 Norte 0.6 -- -- 88
2020-03-16 15:00:00 6.5 14 Norte 30 Norte 0 -- -- 68
2020-03-16 14:00:00 5.3 12 Norte 23 Norte 0 -- -- 76
2020-03-16 13:00:00 4.5 10 Norte 33 Noroeste 0 -- -- 83
2020-03-16 12:00:00 6.3 12 Noroeste 32 Noroeste 0 -- -- 70
2020-03-16 11:00:00 4.3 10 Noroeste 25 Oeste 0 -- -- 79
2020-03-16 10:00:00 2.7 8 Oeste 23 Oeste 0 -- -- 85
2020-03-16 09:00:00 1.2 10 Oeste 26 Oeste 0 -- -- 90
2020-03-16 08:00:00 0.8 10 Oeste 24 Sudoeste 0 -- -- 91
2020-03-16 07:00:00 0.6 10 Oeste 26 Noroeste 0 -- -- 90
2020-03-16 06:00:00 0.8 10 Oeste 31 Oeste 0 -- -- 87
2020-03-16 05:00:00 0.9 11 Oeste 38 Oeste 0 -- -- 86
2020-03-16 04:00:00 1.2 13 Oeste 40 Oeste 0 -- -- 84
2020-03-16 03:00:00 1.7 12 Oeste 44 Oeste 0 -- -- 83
2020-03-16 02:00:00 2.8 9 Oeste 33 Noroeste 0 -- -- 85
2020-03-16 01:00:00 4.1 11 Oeste 33 Oeste 0 -- -- 86
2020-03-16 00:00:00 5.3 9 Oeste 32 Noroeste 0 -- -- 87
2020-03-15 23:00:00 7.2 11 Oeste 36 Oeste 0 -- -- 83
2020-03-15 22:00:00 8.8 10 Oeste 27 Sur 0 -- -- 71
2020-03-15 21:00:00 9.8 10 Oeste 38 Oeste 0 -- -- 70
2020-03-15 20:00:00 11.6 13 Oeste 31 Noroeste 0 -- -- 80
2020-03-15 19:00:00 13.3 12 Oeste 36 Sudoeste 0 -- -- 75
2020-03-15 18:00:00 15.3 12 Oeste 37 Oeste 0 -- -- 66
2020-03-15 17:00:00 16.9 12 Oeste 41 Oeste 0 -- -- 53
2020-03-15 16:00:00 17.2 12 Oeste 40 Oeste 0 -- -- 58
2020-03-15 15:00:00 17.7 14 Noroeste 26 Noroeste 0 -- -- 60
2020-03-15 14:00:00 17.6 13 Oeste 26 Noroeste 0 -- -- 60
2020-03-15 13:00:00 14.9 5 Noroeste 23 Noroeste 0 -- -- 76
2020-03-15 12:00:00 16.5 6 Noroeste 23 Noroeste 0 -- -- 67
2020-03-15 11:00:00 15.8 8 Noroeste 23 Oeste 0 -- -- 67
2020-03-15 10:00:00 15.5 5 Sur 17 Sudeste 0 -- -- 71
2020-03-15 09:00:00 11.6 0 Calma 6 Sudoeste 0 -- -- 83
2020-03-15 08:00:00 10 4 Sur 6 Sur 0 -- -- 87
2020-03-15 07:00:00 10.2 4 Sur 6 Sur 0 -- -- 83
2020-03-15 06:00:00 10.4 5 Sur 9 Sudeste 0 -- -- 82
2020-03-15 05:00:00 10.5 5 Sur 7 Sur 0 -- -- 82
2020-03-15 04:00:00 10.8 5 Sur 8 Sudeste 0 -- -- 82
2020-03-15 03:00:00 11 3 Sur 7 Sur 0 -- -- 80
2020-03-15 02:00:00 11.1 5 Sur 8 Sudeste 0 -- -- 79
2020-03-15 01:00:00 11.3 6 Sudeste 8 Sudeste 0 -- -- 75
2020-03-15 00:00:00 11.7 4 Sur 8 Sudeste 0 -- -- 77
2020-03-14 23:00:00 11.9 4 Sur 9 Sudeste 0 -- -- 77
2020-03-14 22:00:00 12.2 4 Sur 7 Sur 0 -- -- 76
2020-03-14 21:00:00 12.4 5 Sudoeste 8 Sudoeste 0 -- -- 72
2020-03-14 20:00:00 13.6 4 Sur 6 Sudoeste 0 -- -- 68
2020-03-14 19:00:00 16.4 3 Oeste 12 Noroeste 0 -- -- 59
2020-03-14 18:00:00 18.8 9 Noroeste 17 Noroeste 0 -- -- 52
2020-03-14 17:00:00 19 6 Norte 17 Norte 0 -- -- 52
2020-03-14 16:00:00 19.9 9 Norte 17 Norte 0 -- -- 49
2020-03-14 15:00:00 19.5 7 Norte 21 Norte 0 -- -- 49
2020-03-14 14:00:00 19.4 8 Nordeste 22 Nordeste 0 -- -- 47
2020-03-14 13:00:00 18.6 8 Nordeste 18 Norte 0 -- -- 51
2020-03-14 12:00:00 18 7 Nordeste 16 Norte 0 -- -- 59
2020-03-14 11:00:00 16.6 5 Nordeste 19 Sudeste 0 -- -- 62
2020-03-14 10:00:00 15.3 8 Sudeste 20 Este 0 -- -- 64
2020-03-14 09:00:00 11.8 0 Calma 13 Sudeste 0 -- -- 82
2020-03-14 08:00:00 11.2 4 Sur 12 Este 0 -- -- 83
2020-03-14 07:00:00 11.5 8 Sur 13 Sudeste 0 -- -- 84
2020-03-14 06:00:00 9.9 0 Calma 7 Sudoeste 0 -- -- 88
2020-03-14 05:00:00 10.1 3 Sur 6 Sur 0 -- -- 86
2020-03-14 04:00:00 10.5 3 Sudeste 6 Este 0 -- -- 85
2020-03-14 03:00:00 10.5 5 Sur 9 Sur 0 -- -- 85
2020-03-14 02:00:00 11 4 Sur 7 Sudeste 0 -- -- 83
2020-03-14 01:00:00 10.9 5 Sur 7 Sur 0 -- -- 85
2020-03-14 00:00:00 10.9 4 Sur 7 Sudoeste 0 -- -- 86
2020-03-13 23:00:00 11.3 4 Sudoeste 9 Sudoeste 0 -- -- 88
2020-03-13 22:00:00 13.2 6 Sudoeste 12 Sudoeste 0 -- -- 82
2020-03-13 21:00:00 13.6 7 Sudoeste 13 Sudoeste 0 -- -- 81
2020-03-13 20:00:00 13.4 5 Sudoeste 10 Oeste 0 -- -- 79
2020-03-13 19:00:00 14.5 4 Oeste 12 Oeste 0 -- -- 75
2020-03-13 18:00:00 16 5 Noroeste 19 Noroeste 0 -- -- 71
2020-03-13 17:00:00 17.5 9 Noroeste 23 Oeste 0 -- -- 68
2020-03-13 16:00:00 18.7 12 Noroeste 27 Oeste 0 -- -- 64
2020-03-13 15:00:00 18.5 10 Noroeste 22 Noroeste 0 -- -- 65
2020-03-13 14:00:00 17.2 3 Noroeste 13 Norte 0 -- -- 67
2020-03-13 13:00:00 16.6 5 Noroeste 15 Noroeste 0 -- -- 68
2020-03-13 12:00:00 17.7 5 Noroeste 12 Noroeste 0 -- -- 63
2020-03-13 11:00:00 16.4 6 Noroeste 13 Noroeste 0 -- -- 69
2020-03-13 10:00:00 15.6 3 Sur 10 Sudeste 0 -- -- 68
2020-03-13 09:00:00 11.6 5 Sur 10 Sur 0 -- -- 84
2020-03-13 08:00:00 9.8 4 Sudoeste 11 Sudoeste 0 -- -- 84
2020-03-13 07:00:00 9.5 3 Sudoeste 9 Sudeste 0 -- -- 80
2020-03-13 06:00:00 9.4 2 Sudeste 6 Sudeste 0 -- -- 78
2020-03-13 05:00:00 10.3 3 Sudeste 6 Sur 0 -- -- 76
2020-03-13 04:00:00 11.7 4 Sur 7 Sudeste 0 -- -- 69
2020-03-13 03:00:00 12.5 4 Sudeste 8 Sur 0 -- -- 67
2020-03-13 02:00:00 12.5 2 Sur 5 Sur 0 -- -- 66
2020-03-13 01:00:00 12 4 Sur 5 Sur 0 -- -- 64
2020-03-13 00:00:00 12.5 4 Sudeste 6 Sur 0 -- -- 67
2020-03-12 23:00:00 13.5 3 Sur 10 Sudoeste 0 -- -- 65
2020-03-12 22:00:00 15.1 4 Sudoeste 9 Sudoeste 0 -- -- 60
2020-03-12 21:00:00 15.3 3 Oeste 8 Sudoeste 0 -- -- 61
2020-03-12 20:00:00 16.5 4 Sur 11 Sudoeste 0 -- -- 57
2020-03-12 19:00:00 19.3 4 Sudoeste 13 Oeste 0 -- -- 44
2020-03-12 18:00:00 21.4 7 Sudoeste 17 Sudoeste 0 -- -- 37
2020-03-12 17:00:00 22.8 4 Este 17 Sudeste 0 -- -- 35
2020-03-12 16:00:00 22.1 9 Nordeste 22 Sudoeste 0 -- -- 39
2020-03-12 15:00:00 22.6 7 Oeste 21 Sudoeste 0 -- -- 33
2020-03-12 14:00:00 23.2 9 Norte 22 Sudoeste 0 -- -- 35
2020-03-12 13:00:00 22.9 10 Noroeste 19 Oeste 0 -- -- 36
2020-03-12 12:00:00 22.3 4 Oeste 17 Noroeste 0 -- -- 37
2020-03-12 11:00:00 21.1 4 Norte 9 Noroeste 0 -- -- 42
2020-03-12 10:00:00 19.3 5 Oeste 12 Noroeste 0 -- -- 41
2020-03-12 09:00:00 15.2 5 Sur 10 Sudeste 0 -- -- 52
2020-03-12 08:00:00 14.4 5 Sur 13 Este 0 -- -- 53
2020-03-12 07:00:00 13.8 5 Sur 8 Sudeste 0 -- -- 52
2020-03-12 06:00:00 14.6 5 Sur 11 Sudeste 0 -- -- 52
2020-03-12 05:00:00 16.4 6 Sur 14 Sudeste 0 -- -- 47
2020-03-12 04:00:00 16.5 6 Sur 13 Este 0 -- -- 47
2020-03-12 03:00:00 17.1 7 Sudeste 16 Sudeste 0 -- -- 49
2020-03-12 02:00:00 17.4 8 Sudeste 15 Este 0 -- -- 46
2020-03-12 01:00:00 17.6 7 Sudeste 16 Este 0 -- -- 45
2020-03-12 00:00:00 18.1 10 Este 17 Este 0 -- -- 45
2020-03-11 23:00:00 16.5 8 Sudeste 12 Sudeste 0 -- -- 42
2020-03-11 22:00:00 16.8 6 Sudeste 14 Sudeste 0 -- -- 42
2020-03-11 21:00:00 17.1 9 Sudeste 14 Sudeste 0 -- -- 41
2020-03-11 20:00:00 17.3 9 Sudeste 14 Sudeste 0 -- -- 42
2020-03-11 19:00:00 18.8 8 Sudeste 13 Sudeste 0 -- -- 43
2020-03-11 18:00:00 20.8 0 Calma 10 Oeste 0 -- -- 57
2020-03-11 17:00:00 21.9 5 Oeste 17 Oeste 0 -- -- 53
2020-03-11 16:00:00 22.8 8 Oeste 15 Noroeste 0 -- -- 48
2020-03-11 15:00:00 23.4 7 Noroeste 15 Oeste 0 -- -- 45
2020-03-11 14:00:00 23.2 9 Noroeste 16 Oeste 0 -- -- 49
2020-03-11 13:00:00 22.7 8 Oeste 15 Oeste 0 -- -- 46
2020-03-11 12:00:00 21.6 6 Noroeste 10 Oeste 0 -- -- 48
2020-03-11 11:00:00 20.7 3 Noroeste 5 Noroeste 0 -- -- 45
2020-03-11 10:00:00 16.3 0 Calma 7 Sur 0 -- -- 56
2020-03-11 09:00:00 12.7 5 Sur 7 Sudeste 0 -- -- 64
2020-03-11 08:00:00 12.3 6 Sur 7 Sur 0 -- -- 64
2020-03-11 07:00:00 11.9 5 Sur 8 Sudeste 0 -- -- 65
2020-03-11 06:00:00 12.2 5 Sur 8 Sur 0 -- -- 63
2020-03-11 05:00:00 12.2 6 Sur 9 Sur 0 -- -- 63
2020-03-11 04:00:00 11.8 6 Sur 8 Sudeste 0 -- -- 65
2020-03-11 03:00:00 11.8 5 Sur 8 Sur 0 -- -- 65
2020-03-11 02:00:00 12 5 Sur 8 Sur 0 -- -- 63
2020-03-11 01:00:00 11.8 6 Sur 8 Sudeste 0 -- -- 63
2020-03-11 00:00:00 12.4 4 Sudeste 7 Sur 0 -- -- 59
2020-03-10 23:00:00 11.9 5 Sur 8 Sur 0 -- -- 61
2020-03-10 22:00:00 13 4 Sur 8 Sur 0 -- -- 55
2020-03-10 21:00:00 13.8 4 Sur 8 Sur 0 -- -- 57
2020-03-10 20:00:00 14.4 5 Sur 7 Sudoeste 0 -- -- 55
2020-03-10 19:00:00 17.1 4 Sudoeste 9 Noroeste 0 -- -- 50
2020-03-10 18:00:00 21.3 3 Oeste 10 Oeste 0 -- -- 42
2020-03-10 17:00:00 21.4 6 Noroeste -- -- -- -- -- 39
2020-03-10 16:00:00 -- 7 Noroeste 18 Noroeste 0 -- -- --
2020-03-10 15:00:00 20.8 4 Oeste 19 Oeste 0 -- -- 40
2020-03-10 14:00:00 20.2 7 Noroeste 15 Oeste 0 -- -- 41
2020-03-10 13:00:00 19.7 6 Oeste 15 Noroeste 0 -- -- 42
2020-03-10 12:00:00 18.6 8 Noroeste 12 Oeste 0 -- -- 42
2020-03-10 11:00:00 18.1 5 Noroeste 10 Noroeste 0 -- -- 42
2020-03-10 10:00:00 15.5 2 Nordeste 8 Sudoeste 0 -- -- 52
2020-03-10 09:00:00 9.5 3 Sur 6 Sudeste 0 -- -- 67
2020-03-10 08:00:00 8.4 4 Sur 7 Sur 0 -- -- 69
2020-03-10 07:00:00 8 5 Sur 8 Sur 0 -- -- 69
2020-03-10 06:00:00 8.2 5 Sur 8 Sudeste 0 -- -- 68
2020-03-10 05:00:00 7.8 5 Sur 8 Oeste 0 -- -- 69
2020-03-10 04:00:00 8.3 5 Sur 8 Sur 0 -- -- 68
2020-03-10 03:00:00 8.8 4 Sur 9 Sudoeste 0 -- -- 65
2020-03-10 02:00:00 9 5 Sur 9 Sur 0 -- -- 65
2020-03-10 01:00:00 10.5 4 Sudoeste 10 Norte 0 -- -- 56
2020-03-10 00:00:00 12.1 4 Sudeste 13 Sudeste 0 -- -- 48
2020-03-09 23:00:00 10.2 3 Sur 7 Sur 0 -- -- 51
2020-03-09 22:00:00 9.1 4 Sur 7 Sur 0 -- -- 61
2020-03-09 21:00:00 9.4 5 Sudoeste 10 Sudoeste 0 -- -- 56
2020-03-09 20:00:00 10.9 4 Sudoeste 10 Oeste 0 -- -- 55
2020-03-09 19:00:00 13.6 5 Sudoeste 15 Oeste 0 -- -- 54
2020-03-09 18:00:00 16.1 6 Noroeste 15 Oeste 0 -- -- 45
2020-03-09 17:00:00 16.5 7 Oeste 15 Noroeste 0 -- -- 45
2020-03-09 16:00:00 16.3 5 Noroeste 17 Oeste 0 -- -- 47
2020-03-09 15:00:00 15.7 9 Oeste 22 Oeste 0 -- -- 49
2020-03-09 14:00:00 15 8 Oeste 16 Oeste 0 -- -- 51
2020-03-09 13:00:00 13.9 7 Noroeste 17 Oeste 0 -- -- 50
2020-03-09 12:00:00 12.9 7 Noroeste 14 Oeste 0 -- -- 47
2020-03-09 11:00:00 11.6 7 Oeste 14 Oeste 0 -- -- 45
2020-03-09 10:00:00 9.7 0 Calma 9 Oeste 0 -- -- 53
2020-03-09 09:00:00 5.7 3 Sudeste 6 Sur 0 -- -- 70
2020-03-09 08:00:00 4.2 4 Sur 8 Sur 0 -- -- 76
2020-03-09 07:00:00 4.8 5 Sur 10 Sur 0 -- -- 72
2020-03-09 06:00:00 4.6 4 Sudeste 11 Sudoeste 0 -- -- 78
2020-03-09 05:00:00 5 4 Sudeste 12 Oeste 0 -- -- 77
2020-03-09 04:00:00 6.6 5 Sudoeste 18 Sudoeste 0 -- -- 75
2020-03-09 03:00:00 7.5 8 Sudoeste 21 Sudoeste 0 -- -- 83
2020-03-09 02:00:00 8 9 Sudoeste 20 Oeste 0 -- -- 79
2020-03-09 01:00:00 7.7 7 Sudoeste 14 Sudoeste 0 -- -- 89
2020-03-09 00:00:00 7.1 5 Sudoeste 14 Sudoeste 0 -- -- 88
2020-03-08 23:00:00 8.3 5 Sudoeste 18 Oeste 0 -- -- 83
2020-03-08 22:00:00 9.3 9 Sudoeste 17 Sudoeste 0 -- -- 78
2020-03-08 21:00:00 9.5 8 Sudoeste 23 Oeste 0 -- -- 68
2020-03-08 20:00:00 10.9 9 Sudoeste 14 Oeste 0 -- -- 58
2020-03-08 19:00:00 11.5 0 Calma 19 Oeste 0 -- -- 64
2020-03-08 18:00:00 12.1 6 Sudoeste 18 Oeste 0 -- -- 52
2020-03-08 17:00:00 13.3 10 Noroeste 19 Oeste 0 -- -- 52
2020-03-08 16:00:00 14.1 8 Noroeste 19 Noroeste 0 -- -- 44
2020-03-08 15:00:00 15 9 Oeste 20 Noroeste 0 -- -- 36
2020-03-08 14:00:00 15.3 9 Oeste 18 Noroeste 0 -- -- 35
2020-03-08 13:00:00 14.4 10 Noroeste 19 Oeste 0 -- -- 37
2020-03-08 12:00:00 13.1 7 Noroeste 17 Noroeste 0 -- -- 45
2020-03-08 11:00:00 11.1 6 Sudoeste 13 Oeste 0 -- -- 57
2020-03-08 10:00:00 9.7 6 Noroeste 11 Noroeste 0 -- -- 67
2020-03-08 09:00:00 4.5 3 Sur 6 Sur 0 -- -- 85
2020-03-08 08:00:00 3.9 5 Sudoeste 10 Sudoeste 0 -- -- 87
2020-03-08 07:00:00 4.7 7 Sudoeste 12 Sudoeste 0 -- -- 87
2020-03-08 06:00:00 4.2 5 Sudoeste 11 Oeste 0 -- -- 86
2020-03-08 05:00:00 5 5 Sudoeste 12 Sudoeste 0 -- -- 83
2020-03-08 04:00:00 6.2 6 Sudoeste 13 Sudoeste 0 -- -- 80
2020-03-08 03:00:00 5 4 Sur 8 Sudoeste 0 -- -- 84
2020-03-08 02:00:00 5.8 3 Sur 9 Sudoeste 0 -- -- 83
2020-03-08 01:00:00 5.5 5 Sur 8 Sur 0 -- -- 85
2020-03-08 00:00:00 5.9 4 Sudoeste 8 Sur 0 -- -- 82
2020-03-07 23:00:00 6 5 Sur 8 Sudoeste 0 -- -- 81
2020-03-07 22:00:00 6 4 Sur 8 Sur 0 -- -- 77
2020-03-07 21:00:00 6.7 3 Sur 7 Sur 0 -- -- 75
2020-03-07 20:00:00 8 4 Sudoeste 10 Sudoeste 0 -- -- 70
2020-03-07 19:00:00 10.6 3 Oeste 15 Oeste 0 -- -- 60
2020-03-07 18:00:00 13.2 9 Noroeste 18 Noroeste 0 -- -- 54
2020-03-07 17:00:00 14 6 Oeste 18 Oeste 0 -- -- 52
2020-03-07 16:00:00 13.7 8 Noroeste 21 Noroeste 0 -- -- 51
2020-03-07 15:00:00 13.9 8 Oeste 20 Noroeste 0 -- -- 49
2020-03-07 14:00:00 12.9 5 Norte 19 Nordeste 0 -- -- 47
2020-03-07 13:00:00 12.5 8 Norte 17 Nordeste 0 -- -- 48
2020-03-07 12:00:00 11.2 5 Este 23 Nordeste 0 -- -- 51
2020-03-07 11:00:00 10.4 6 Este 14 Este 0 -- -- 52
2020-03-07 10:00:00 8.7 5 Este 13 Nordeste 0 -- -- 57
2020-03-07 09:00:00 5.6 6 Sudeste 15 Sudeste 0 -- -- 66
2020-03-07 08:00:00 3.9 4 Sur 13 Sur 0 -- -- 70
2020-03-07 07:00:00 3.1 2 Sudeste 8 Este 0 -- -- 75
2020-03-07 06:00:00 2.6 4 Sudeste 7 Sudeste 0 -- -- 79
2020-03-07 05:00:00 2 2 Sur 7 Sur 0 -- -- 79
2020-03-07 04:00:00 2.7 3 Sur 6 Sur 0 -- -- 76
2020-03-07 03:00:00 2.9 4 Sudeste 7 Sudeste 0 -- -- 77
2020-03-07 02:00:00 2.6 4 Sur 7 Sudeste 0 -- -- 78
2020-03-07 01:00:00 3 3 Sur 11 Oeste 0 -- -- 76
2020-03-07 00:00:00 3.3 4 Sur 12 Sudoeste 0 -- -- 75
2020-03-06 23:00:00 4.2 4 Sur 16 Norte 0 -- -- 71
2020-03-06 22:00:00 5.1 6 Noroeste 28 Noroeste 0 -- -- 65
2020-03-06 21:00:00 6.2 8 Oeste 30 Oeste 0 -- -- 60
2020-03-06 20:00:00 6.7 10 Oeste 35 Oeste 0 -- -- 59
2020-03-06 19:00:00 7.8 11 Noroeste 33 Oeste 0 -- -- 52
2020-03-06 18:00:00 9.7 14 Noroeste 35 Noroeste 0 -- -- 49
2020-03-06 17:00:00 10.5 14 Noroeste 33 Noroeste 0 -- -- 49
2020-03-06 16:00:00 10.4 14 Oeste 49 Noroeste 0 -- -- 52
2020-03-06 15:00:00 10.2 20 Noroeste 40 Oeste 0 -- -- 53
2020-03-06 14:00:00 8.7 14 Oeste 33 Noroeste 0 -- -- 58
2020-03-06 13:00:00 8.4 14 Oeste 43 Noroeste 0 -- -- 63
2020-03-06 12:00:00 7.9 17 Noroeste 40 Noroeste 0 -- -- 65
2020-03-06 11:00:00 6.5 15 Oeste 39 Noroeste 0 -- -- 70
2020-03-06 10:00:00 5.5 15 Oeste 26 Noroeste 0 -- -- 81
2020-03-06 09:00:00 4.7 11 Oeste 34 Oeste 0 -- -- 95
2020-03-06 08:00:00 4.5 16 Oeste 38 Oeste 0 -- -- 96
2020-03-06 07:00:00 4.6 17 Oeste 46 Oeste 0 -- -- 99
2020-03-06 06:00:00 5.1 14 Oeste 44 Oeste 0 -- -- 95
2020-03-06 05:00:00 4.8 13 Oeste 36 Sudoeste 0 -- -- 93
2020-03-06 04:00:00 4.4 10 Oeste 31 Oeste 0 -- -- 91
2020-03-06 03:00:00 3.9 6 Oeste 26 Oeste 0 -- -- 97
2020-03-06 02:00:00 3.9 9 Oeste 31 Oeste 0 -- -- 95
2020-03-06 01:00:00 4.2 10 Oeste 27 Oeste 0 -- -- 90
2020-03-06 00:00:00 4.9 13 Oeste 30 Sudoeste 0 -- -- 88
2020-03-05 23:00:00 5.5 11 Oeste 31 Sudoeste 0 -- -- 85
2020-03-05 22:00:00 6.4 13 Oeste 31 Oeste 0 -- -- 85
2020-03-05 21:00:00 7.4 14 Oeste 39 Noroeste 0 -- -- 85
2020-03-05 20:00:00 8.4 12 Oeste 36 Oeste 0 -- -- 83
2020-03-05 19:00:00 9.4 13 Oeste 33 Noroeste 0 -- -- 77
2020-03-05 18:00:00 10.2 11 Oeste 36 Oeste 0 -- -- 74
2020-03-05 17:00:00 11 14 Oeste 39 Oeste 0 -- -- 70
2020-03-05 16:00:00 11.6 14 Oeste 44 Oeste 0 -- -- 69
2020-03-05 15:00:00 10.7 15 Oeste 38 Oeste 0 -- -- 73
2020-03-05 14:00:00 10.9 15 Oeste 39 Oeste 0 -- -- 78
2020-03-05 13:00:00 9.2 14 Oeste 35 Oeste 0 -- -- 88
2020-03-05 12:00:00 8.9 13 Oeste 39 Oeste 0.8 -- -- 89
2020-03-05 11:00:00 8.9 18 Oeste 50 Sur 3.6 -- -- 98
2020-03-05 10:00:00 8.9 17 Oeste 45 Oeste 2.2 -- -- 97
2020-03-05 09:00:00 8.8 19 Oeste 53 Sudoeste 0.4 -- -- 95
2020-03-05 08:00:00 8.9 15 Oeste 52 Oeste 0 -- -- 92
2020-03-05 07:00:00 8.8 11 Oeste 37 Sudoeste 0 -- -- 97
2020-03-05 06:00:00 9 12 Oeste 35 Sudoeste 0 -- -- 96
2020-03-05 05:00:00 9.1 8 Sudoeste 35 Noroeste 0 -- -- 96
2020-03-05 04:00:00 9.3 11 Oeste 30 Oeste 0 -- -- 98
2020-03-05 03:00:00 9.8 8 Oeste 28 Oeste 0 -- -- 96
2020-03-05 02:00:00 9.9 11 Oeste 32 Sudoeste 0 -- -- 96
2020-03-05 01:00:00 10.1 10 Oeste 27 Oeste 0 -- -- 95
2020-03-05 00:00:00 10.1 12 Sudoeste 31 Sudoeste 0 -- -- 91